sensor_id;sensor_type;location;lat;lon;timestamp;P1;durP1;ratioP1;P2;durP2;ratioP2
15629;SDS011;7914;50.842;0.166;2023-07-30T00:01:22;19.15;;;3.45;;
15629;SDS011;7914;50.842;0.166;2023-07-30T00:03:47;15.30;;;2.78;;
15629;SDS011;7914;50.842;0.166;2023-07-30T00:06:13;18.55;;;3.30;;
15629;SDS011;7914;50.842;0.166;2023-07-30T00:08:39;14.68;;;4.40;;
15629;SDS011;7914;50.842;0.166;2023-07-30T00:11:04;11.68;;;2.13;;
15629;SDS011;7914;50.842;0.166;2023-07-30T00:13:30;9.95;;;2.40;;
15629;SDS011;7914;50.842;0.166;2023-07-30T00:15:55;21.33;;;2.60;;
15629;SDS011;7914;50.842;0.166;2023-07-30T00:18:21;11.00;;;2.50;;
15629;SDS011;7914;50.842;0.166;2023-07-30T00:20:47;18.13;;;2.90;;
15629;SDS011;7914;50.842;0.166;2023-07-30T00:23:12;10.68;;;2.20;;
15629;SDS011;7914;50.842;0.166;2023-07-30T00:25:38;10.13;;;2.05;;
15629;SDS011;7914;50.842;0.166;2023-07-30T00:28:04;10.65;;;2.70;;
15629;SDS011;7914;50.842;0.166;2023-07-30T00:30:29;12.13;;;2.42;;
15629;SDS011;7914;50.842;0.166;2023-07-30T00:32:55;15.57;;;2.40;;
15629;SDS011;7914;50.842;0.166;2023-07-30T00:35:21;12.63;;;2.30;;
15629;SDS011;7914;50.842;0.166;2023-07-30T00:37:47;12.27;;;2.15;;
15629;SDS011;7914;50.842;0.166;2023-07-30T00:40:12;8.20;;;1.90;;
15629;SDS011;7914;50.842;0.166;2023-07-30T00:42:38;14.07;;;2.13;;
15629;SDS011;7914;50.842;0.166;2023-07-30T00:45:04;9.88;;;1.90;;
15629;SDS011;7914;50.842;0.166;2023-07-30T00:47:30;16.27;;;2.47;;
15629;SDS011;7914;50.842;0.166;2023-07-30T00:49:56;10.65;;;2.25;;
15629;SDS011;7914;50.842;0.166;2023-07-30T00:52:22;11.93;;;1.83;;
15629;SDS011;7914;50.842;0.166;2023-07-30T00:54:51;10.15;;;1.95;;
15629;SDS011;7914;50.842;0.166;2023-07-30T00:57:17;11.50;;;2.78;;
15629;SDS011;7914;50.842;0.166;2023-07-30T00:59:44;14.93;;;2.97;;
15629;SDS011;7914;50.842;0.166;2023-07-30T01:02:11;16.50;;;2.75;;
15629;SDS011;7914;50.842;0.166;2023-07-30T01:04:37;15.27;;;3.08;;
15629;SDS011;7914;50.842;0.166;2023-07-30T01:07:05;12.90;;;2.72;;
15629;SDS011;7914;50.842;0.166;2023-07-30T01:09:31;11.57;;;2.40;;
15629;SDS011;7914;50.842;0.166;2023-07-30T01:11:57;15.45;;;2.38;;
15629;SDS011;7914;50.842;0.166;2023-07-30T01:14:25;13.77;;;2.13;;
15629;SDS011;7914;50.842;0.166;2023-07-30T01:16:51;10.38;;;2.78;;
15629;SDS011;7914;50.842;0.166;2023-07-30T01:19:18;13.63;;;2.72;;
15629;SDS011;7914;50.842;0.166;2023-07-30T01:21:44;14.63;;;2.50;;
15629;SDS011;7914;50.842;0.166;2023-07-30T01:24:09;10.05;;;3.08;;
15629;SDS011;7914;50.842;0.166;2023-07-30T01:26:39;13.52;;;2.38;;
15629;SDS011;7914;50.842;0.166;2023-07-30T01:29:22;14.57;;;3.50;;
15629;SDS011;7914;50.842;0.166;2023-07-30T01:31:55;13.38;;;2.00;;
15629;SDS011;7914;50.842;0.166;2023-07-30T01:34:23;11.63;;;2.25;;
15629;SDS011;7914;50.842;0.166;2023-07-30T01:36:50;15.73;;;3.05;;
15629;SDS011;7914;50.842;0.166;2023-07-30T01:39:18;11.18;;;2.40;;
15629;SDS011;7914;50.842;0.166;2023-07-30T01:41:44;24.88;;;5.20;;
15629;SDS011;7914;50.842;0.166;2023-07-30T01:44:10;17.27;;;3.20;;
15629;SDS011;7914;50.842;0.166;2023-07-30T01:46:35;19.30;;;3.03;;
15629;SDS011;7914;50.842;0.166;2023-07-30T01:49:01;14.82;;;3.30;;
15629;SDS011;7914;50.842;0.166;2023-07-30T01:51:26;18.92;;;3.53;;
15629;SDS011;7914;50.842;0.166;2023-07-30T01:53:52;13.38;;;2.92;;
15629;SDS011;7914;50.842;0.166;2023-07-30T01:56:18;15.05;;;2.20;;
15629;SDS011;7914;50.842;0.166;2023-07-30T01:58:43;18.30;;;2.60;;
15629;SDS011;7914;50.842;0.166;2023-07-30T02:01:09;19.52;;;3.35;;
15629;SDS011;7914;50.842;0.166;2023-07-30T02:03:35;14.05;;;2.38;;
15629;SDS011;7914;50.842;0.166;2023-07-30T02:06:00;13.60;;;2.35;;
15629;SDS011;7914;50.842;0.166;2023-07-30T02:08:26;12.00;;;2.05;;
15629;SDS011;7914;50.842;0.166;2023-07-30T02:10:55;11.60;;;2.33;;
15629;SDS011;7914;50.842;0.166;2023-07-30T02:13:25;13.40;;;2.13;;
15629;SDS011;7914;50.842;0.166;2023-07-30T02:15:51;8.55;;;2.20;;
15629;SDS011;7914;50.842;0.166;2023-07-30T02:18:17;11.85;;;2.58;;
15629;SDS011;7914;50.842;0.166;2023-07-30T02:20:42;9.63;;;2.10;;
15629;SDS011;7914;50.842;0.166;2023-07-30T02:23:08;13.93;;;2.65;;
15629;SDS011;7914;50.842;0.166;2023-07-30T02:25:34;12.98;;;2.67;;
15629;SDS011;7914;50.842;0.166;2023-07-30T02:28:00;11.50;;;2.20;;
15629;SDS011;7914;50.842;0.166;2023-07-30T02:30:26;12.77;;;2.45;;
15629;SDS011;7914;50.842;0.166;2023-07-30T02:32:52;14.48;;;2.30;;
15629;SDS011;7914;50.842;0.166;2023-07-30T02:35:18;10.77;;;2.30;;
15629;SDS011;7914;50.842;0.166;2023-07-30T02:37:44;10.68;;;2.65;;
15629;SDS011;7914;50.842;0.166;2023-07-30T02:40:09;12.48;;;2.40;;
15629;SDS011;7914;50.842;0.166;2023-07-30T02:42:35;13.75;;;2.40;;
15629;SDS011;7914;50.842;0.166;2023-07-30T02:45:01;8.60;;;2.17;;
15629;SDS011;7914;50.842;0.166;2023-07-30T02:47:27;15.15;;;2.75;;
15629;SDS011;7914;50.842;0.166;2023-07-30T02:49:53;8.57;;;1.80;;
15629;SDS011;7914;50.842;0.166;2023-07-30T02:52:18;12.20;;;2.45;;
15629;SDS011;7914;50.842;0.166;2023-07-30T02:54:44;7.22;;;1.40;;
15629;SDS011;7914;50.842;0.166;2023-07-30T02:57:10;7.70;;;1.80;;
15629;SDS011;7914;50.842;0.166;2023-07-30T02:59:36;8.57;;;1.50;;
15629;SDS011;7914;50.842;0.166;2023-07-30T03:02:02;8.18;;;1.42;;
15629;SDS011;7914;50.842;0.166;2023-07-30T03:04:30;7.75;;;1.67;;
15629;SDS011;7914;50.842;0.166;2023-07-30T03:06:56;7.78;;;1.10;;
15629;SDS011;7914;50.842;0.166;2023-07-30T03:09:22;3.83;;;1.02;;
15629;SDS011;7914;50.842;0.166;2023-07-30T03:11:49;4.30;;;1.50;;
15629;SDS011;7914;50.842;0.166;2023-07-30T03:14:15;7.70;;;1.33;;
15629;SDS011;7914;50.842;0.166;2023-07-30T03:16:41;11.35;;;1.85;;
15629;SDS011;7914;50.842;0.166;2023-07-30T03:19:07;7.80;;;1.30;;
15629;SDS011;7914;50.842;0.166;2023-07-30T03:21:32;4.40;;;1.17;;
15629;SDS011;7914;50.842;0.166;2023-07-30T03:23:58;6.30;;;1.40;;
15629;SDS011;7914;50.842;0.166;2023-07-30T03:26:24;6.80;;;1.73;;
15629;SDS011;7914;50.842;0.166;2023-07-30T03:28:49;9.57;;;1.52;;
15629;SDS011;7914;50.842;0.166;2023-07-30T03:31:15;5.63;;;1.17;;
15629;SDS011;7914;50.842;0.166;2023-07-30T03:33:41;6.35;;;1.25;;
15629;SDS011;7914;50.842;0.166;2023-07-30T03:36:11;6.05;;;1.48;;
15629;SDS011;7914;50.842;0.166;2023-07-30T03:38:38;9.93;;;1.95;;
15629;SDS011;7914;50.842;0.166;2023-07-30T03:41:05;6.93;;;1.42;;
15629;SDS011;7914;50.842;0.166;2023-07-30T03:43:31;6.97;;;1.45;;
15629;SDS011;7914;50.842;0.166;2023-07-30T03:45:57;6.15;;;2.10;;
15629;SDS011;7914;50.842;0.166;2023-07-30T03:48:23;5.18;;;1.05;;
15629;SDS011;7914;50.842;0.166;2023-07-30T03:50:49;8.07;;;1.40;;
15629;SDS011;7914;50.842;0.166;2023-07-30T03:53:15;5.95;;;1.13;;
15629;SDS011;7914;50.842;0.166;2023-07-30T03:55:40;7.03;;;1.40;;
15629;SDS011;7914;50.842;0.166;2023-07-30T03:58:06;6.10;;;1.40;;
15629;SDS011;7914;50.842;0.166;2023-07-30T04:00:32;7.82;;;1.45;;
15629;SDS011;7914;50.842;0.166;2023-07-30T04:02:58;8.25;;;1.60;;
15629;SDS011;7914;50.842;0.166;2023-07-30T04:05:24;12.50;;;2.10;;
15629;SDS011;7914;50.842;0.166;2023-07-30T04:07:49;6.68;;;1.58;;
15629;SDS011;7914;50.842;0.166;2023-07-30T04:10:15;8.38;;;1.70;;
15629;SDS011;7914;50.842;0.166;2023-07-30T04:12:41;5.85;;;1.60;;
15629;SDS011;7914;50.842;0.166;2023-07-30T04:15:07;7.43;;;1.70;;
15629;SDS011;7914;50.842;0.166;2023-07-30T04:17:34;10.80;;;1.88;;
15629;SDS011;7914;50.842;0.166;2023-07-30T04:20:01;6.90;;;1.70;;
15629;SDS011;7914;50.842;0.166;2023-07-30T04:22:27;8.07;;;1.48;;
15629;SDS011;7914;50.842;0.166;2023-07-30T04:24:53;11.40;;;2.60;;
15629;SDS011;7914;50.842;0.166;2023-07-30T04:27:19;11.10;;;1.80;;
15629;SDS011;7914;50.842;0.166;2023-07-30T04:29:45;5.75;;;1.70;;
15629;SDS011;7914;50.842;0.166;2023-07-30T04:32:10;6.88;;;1.48;;
15629;SDS011;7914;50.842;0.166;2023-07-30T04:34:36;10.05;;;2.08;;
15629;SDS011;7914;50.842;0.166;2023-07-30T04:37:02;5.75;;;1.60;;
15629;SDS011;7914;50.842;0.166;2023-07-30T04:39:27;6.57;;;1.60;;
15629;SDS011;7914;50.842;0.166;2023-07-30T04:41:54;7.25;;;1.88;;
15629;SDS011;7914;50.842;0.166;2023-07-30T04:44:20;9.52;;;1.75;;
15629;SDS011;7914;50.842;0.166;2023-07-30T04:46:45;5.30;;;1.52;;
15629;SDS011;7914;50.842;0.166;2023-07-30T04:49:11;5.40;;;1.20;;
15629;SDS011;7914;50.842;0.166;2023-07-30T04:51:37;7.45;;;1.65;;
15629;SDS011;7914;50.842;0.166;2023-07-30T04:54:03;11.23;;;1.63;;
15629;SDS011;7914;50.842;0.166;2023-07-30T04:56:29;9.82;;;1.40;;
15629;SDS011;7914;50.842;0.166;2023-07-30T04:58:54;8.18;;;1.80;;
15629;SDS011;7914;50.842;0.166;2023-07-30T05:01:20;5.60;;;1.50;;
15629;SDS011;7914;50.842;0.166;2023-07-30T05:03:46;6.68;;;1.55;;
15629;SDS011;7914;50.842;0.166;2023-07-30T05:06:12;8.50;;;1.50;;
15629;SDS011;7914;50.842;0.166;2023-07-30T05:08:37;8.27;;;1.80;;
15629;SDS011;7914;50.842;0.166;2023-07-30T05:11:03;6.50;;;1.33;;
15629;SDS011;7914;50.842;0.166;2023-07-30T05:13:28;7.50;;;1.50;;
15629;SDS011;7914;50.842;0.166;2023-07-30T05:15:54;8.40;;;2.03;;
15629;SDS011;7914;50.842;0.166;2023-07-30T05:18:20;6.57;;;1.33;;
15629;SDS011;7914;50.842;0.166;2023-07-30T05:20:46;7.72;;;1.40;;
15629;SDS011;7914;50.842;0.166;2023-07-30T05:23:11;7.70;;;1.83;;
15629;SDS011;7914;50.842;0.166;2023-07-30T05:25:37;8.88;;;1.50;;
15629;SDS011;7914;50.842;0.166;2023-07-30T05:28:03;6.95;;;1.35;;
15629;SDS011;7914;50.842;0.166;2023-07-30T05:30:29;8.23;;;1.33;;
15629;SDS011;7914;50.842;0.166;2023-07-30T05:32:54;10.27;;;1.80;;
15629;SDS011;7914;50.842;0.166;2023-07-30T05:35:20;9.05;;;2.47;;
15629;SDS011;7914;50.842;0.166;2023-07-30T05:37:46;6.30;;;1.38;;
15629;SDS011;7914;50.842;0.166;2023-07-30T05:40:12;12.52;;;1.98;;
15629;SDS011;7914;50.842;0.166;2023-07-30T05:42:38;12.73;;;1.98;;
15629;SDS011;7914;50.842;0.166;2023-07-30T05:45:03;9.88;;;1.67;;
15629;SDS011;7914;50.842;0.166;2023-07-30T05:47:29;7.15;;;1.42;;
15629;SDS011;7914;50.842;0.166;2023-07-30T05:49:55;9.00;;;1.70;;
15629;SDS011;7914;50.842;0.166;2023-07-30T05:52:21;8.63;;;1.42;;
15629;SDS011;7914;50.842;0.166;2023-07-30T05:54:46;7.90;;;1.40;;
15629;SDS011;7914;50.842;0.166;2023-07-30T05:57:12;7.30;;;1.50;;
15629;SDS011;7914;50.842;0.166;2023-07-30T05:59:38;9.68;;;1.63;;
15629;SDS011;7914;50.842;0.166;2023-07-30T06:02:04;6.80;;;1.58;;
15629;SDS011;7914;50.842;0.166;2023-07-30T06:04:30;8.40;;;1.55;;
15629;SDS011;7914;50.842;0.166;2023-07-30T06:06:55;8.77;;;1.67;;
15629;SDS011;7914;50.842;0.166;2023-07-30T06:09:23;7.13;;;1.55;;
15629;SDS011;7914;50.842;0.166;2023-07-30T06:11:48;6.47;;;1.63;;
15629;SDS011;7914;50.842;0.166;2023-07-30T06:14:14;9.48;;;1.45;;
15629;SDS011;7914;50.842;0.166;2023-07-30T06:16:40;7.88;;;1.48;;
15629;SDS011;7914;50.842;0.166;2023-07-30T06:19:05;9.98;;;1.80;;
15629;SDS011;7914;50.842;0.166;2023-07-30T06:21:31;8.02;;;1.85;;
15629;SDS011;7914;50.842;0.166;2023-07-30T06:23:57;9.40;;;1.58;;
15629;SDS011;7914;50.842;0.166;2023-07-30T06:26:22;7.43;;;2.08;;
15629;SDS011;7914;50.842;0.166;2023-07-30T06:28:48;8.63;;;1.65;;
15629;SDS011;7914;50.842;0.166;2023-07-30T06:31:14;11.38;;;1.85;;
15629;SDS011;7914;50.842;0.166;2023-07-30T06:33:39;8.52;;;1.70;;
15629;SDS011;7914;50.842;0.166;2023-07-30T06:36:05;6.15;;;1.63;;
15629;SDS011;7914;50.842;0.166;2023-07-30T06:38:31;9.85;;;1.92;;
15629;SDS011;7914;50.842;0.166;2023-07-30T06:40:56;4.68;;;1.23;;
15629;SDS011;7914;50.842;0.166;2023-07-30T06:43:23;6.90;;;1.52;;
15629;SDS011;7914;50.842;0.166;2023-07-30T06:45:49;12.02;;;2.92;;
15629;SDS011;7914;50.842;0.166;2023-07-30T06:48:15;7.43;;;1.20;;
15629;SDS011;7914;50.842;0.166;2023-07-30T06:50:41;11.40;;;1.80;;
15629;SDS011;7914;50.842;0.166;2023-07-30T06:53:07;11.50;;;2.58;;
15629;SDS011;7914;50.842;0.166;2023-07-30T06:55:32;6.63;;;1.73;;
15629;SDS011;7914;50.842;0.166;2023-07-30T06:57:58;10.35;;;1.88;;
15629;SDS011;7914;50.842;0.166;2023-07-30T07:00:24;6.32;;;1.52;;
15629;SDS011;7914;50.842;0.166;2023-07-30T07:02:50;8.63;;;1.55;;
15629;SDS011;7914;50.842;0.166;2023-07-30T07:05:16;10.50;;;1.60;;
15629;SDS011;7914;50.842;0.166;2023-07-30T07:07:42;6.75;;;1.77;;
15629;SDS011;7914;50.842;0.166;2023-07-30T07:10:08;7.85;;;1.60;;
15629;SDS011;7914;50.842;0.166;2023-07-30T07:12:36;8.48;;;1.63;;
15629;SDS011;7914;50.842;0.166;2023-07-30T07:15:04;11.30;;;2.38;;
15629;SDS011;7914;50.842;0.166;2023-07-30T07:17:31;5.55;;;1.35;;
15629;SDS011;7914;50.842;0.166;2023-07-30T07:19:57;9.32;;;1.38;;
15629;SDS011;7914;50.842;0.166;2023-07-30T07:22:23;6.75;;;1.40;;
15629;SDS011;7914;50.842;0.166;2023-07-30T07:24:49;10.57;;;1.95;;
15629;SDS011;7914;50.842;0.166;2023-07-30T07:27:17;8.18;;;1.45;;
15629;SDS011;7914;50.842;0.166;2023-07-30T07:29:43;9.70;;;2.38;;
15629;SDS011;7914;50.842;0.166;2023-07-30T07:32:09;6.63;;;1.33;;
15629;SDS011;7914;50.842;0.166;2023-07-30T07:34:35;10.23;;;1.65;;
15629;SDS011;7914;50.842;0.166;2023-07-30T07:37:01;6.80;;;1.55;;
15629;SDS011;7914;50.842;0.166;2023-07-30T07:39:27;7.00;;;1.50;;
15629;SDS011;7914;50.842;0.166;2023-07-30T07:41:53;9.95;;;1.80;;
15629;SDS011;7914;50.842;0.166;2023-07-30T07:44:20;10.48;;;1.58;;
15629;SDS011;7914;50.842;0.166;2023-07-30T07:46:46;9.52;;;1.25;;
15629;SDS011;7914;50.842;0.166;2023-07-30T07:49:12;8.88;;;1.55;;
15629;SDS011;7914;50.842;0.166;2023-07-30T07:51:38;10.05;;;1.60;;
15629;SDS011;7914;50.842;0.166;2023-07-30T07:54:03;7.43;;;1.58;;
15629;SDS011;7914;50.842;0.166;2023-07-30T07:56:30;7.70;;;2.00;;
15629;SDS011;7914;50.842;0.166;2023-07-30T07:58:56;6.93;;;1.77;;
15629;SDS011;7914;50.842;0.166;2023-07-30T08:01:22;7.63;;;2.00;;
15629;SDS011;7914;50.842;0.166;2023-07-30T08:03:48;10.70;;;2.03;;
15629;SDS011;7914;50.842;0.166;2023-07-30T08:06:13;8.80;;;1.55;;
15629;SDS011;7914;50.842;0.166;2023-07-30T08:08:39;13.48;;;2.67;;
15629;SDS011;7914;50.842;0.166;2023-07-30T08:11:05;9.80;;;2.00;;
15629;SDS011;7914;50.842;0.166;2023-07-30T08:13:32;11.13;;;1.98;;
15629;SDS011;7914;50.842;0.166;2023-07-30T08:15:59;9.48;;;1.55;;
15629;SDS011;7914;50.842;0.166;2023-07-30T08:18:25;9.43;;;1.83;;
15629;SDS011;7914;50.842;0.166;2023-07-30T08:20:51;11.15;;;1.92;;
15629;SDS011;7914;50.842;0.166;2023-07-30T08:23:17;9.48;;;1.67;;
15629;SDS011;7914;50.842;0.166;2023-07-30T08:25:42;11.73;;;2.10;;
15629;SDS011;7914;50.842;0.166;2023-07-30T08:28:08;11.68;;;2.15;;
15629;SDS011;7914;50.842;0.166;2023-07-30T08:30:33;9.95;;;1.95;;
15629;SDS011;7914;50.842;0.166;2023-07-30T08:32:59;10.05;;;1.88;;
15629;SDS011;7914;50.842;0.166;2023-07-30T08:35:25;11.80;;;1.98;;
15629;SDS011;7914;50.842;0.166;2023-07-30T08:37:52;8.40;;;2.10;;
15629;SDS011;7914;50.842;0.166;2023-07-30T08:40:17;10.63;;;2.25;;
15629;SDS011;7914;50.842;0.166;2023-07-30T08:42:45;10.90;;;2.38;;
15629;SDS011;7914;50.842;0.166;2023-07-30T08:45:11;10.98;;;1.95;;
15629;SDS011;7914;50.842;0.166;2023-07-30T08:47:38;9.55;;;2.35;;
15629;SDS011;7914;50.842;0.166;2023-07-30T08:50:05;11.30;;;2.40;;
15629;SDS011;7914;50.842;0.166;2023-07-30T08:52:31;13.05;;;2.28;;
15629;SDS011;7914;50.842;0.166;2023-07-30T08:54:59;11.55;;;1.77;;
15629;SDS011;7914;50.842;0.166;2023-07-30T08:57:27;7.45;;;1.88;;
15629;SDS011;7914;50.842;0.166;2023-07-30T08:59:55;9.77;;;1.42;;
15629;SDS011;7914;50.842;0.166;2023-07-30T09:02:37;13.98;;;2.40;;
15629;SDS011;7914;50.842;0.166;2023-07-30T09:05:23;11.68;;;2.20;;
15629;SDS011;7914;50.842;0.166;2023-07-30T09:07:50;15.35;;;2.17;;
15629;SDS011;7914;50.842;0.166;2023-07-30T09:10:15;10.68;;;2.70;;
15629;SDS011;7914;50.842;0.166;2023-07-30T09:12:41;11.25;;;2.80;;
15629;SDS011;7914;50.842;0.166;2023-07-30T09:15:07;11.43;;;2.75;;
15629;SDS011;7914;50.842;0.166;2023-07-30T09:17:34;14.93;;;4.00;;
15629;SDS011;7914;50.842;0.166;2023-07-30T09:20:01;15.23;;;2.78;;
15629;SDS011;7914;50.842;0.166;2023-07-30T09:22:29;12.57;;;2.42;;
15629;SDS011;7914;50.842;0.166;2023-07-30T09:25:00;9.88;;;3.00;;
15629;SDS011;7914;50.842;0.166;2023-07-30T09:27:28;13.60;;;4.13;;
15629;SDS011;7914;50.842;0.166;2023-07-30T09:29:57;12.20;;;2.78;;
15629;SDS011;7914;50.842;0.166;2023-07-30T09:32:28;14.13;;;3.72;;
15629;SDS011;7914;50.842;0.166;2023-07-30T09:34:55;14.05;;;2.65;;
15629;SDS011;7914;50.842;0.166;2023-07-30T09:37:21;18.40;;;3.60;;
15629;SDS011;7914;50.842;0.166;2023-07-30T09:39:47;10.93;;;2.95;;
15629;SDS011;7914;50.842;0.166;2023-07-30T09:42:13;16.73;;;2.75;;
15629;SDS011;7914;50.842;0.166;2023-07-30T09:44:39;14.00;;;3.05;;
15629;SDS011;7914;50.842;0.166;2023-07-30T09:47:08;11.75;;;2.88;;
15629;SDS011;7914;50.842;0.166;2023-07-30T09:49:38;11.77;;;4.15;;
15629;SDS011;7914;50.842;0.166;2023-07-30T09:52:04;12.30;;;3.05;;
15629;SDS011;7914;50.842;0.166;2023-07-30T09:54:31;14.98;;;3.08;;
15629;SDS011;7914;50.842;0.166;2023-07-30T09:56:58;14.65;;;3.42;;
15629;SDS011;7914;50.842;0.166;2023-07-30T09:59:24;15.05;;;3.17;;
15629;SDS011;7914;50.842;0.166;2023-07-30T10:01:50;12.77;;;3.35;;
15629;SDS011;7914;50.842;0.166;2023-07-30T10:04:21;12.98;;;2.90;;
15629;SDS011;7914;50.842;0.166;2023-07-30T10:06:56;14.15;;;3.33;;
15629;SDS011;7914;50.842;0.166;2023-07-30T10:09:30;16.50;;;3.47;;
15629;SDS011;7914;50.842;0.166;2023-07-30T10:11:59;15.63;;;3.20;;
15629;SDS011;7914;50.842;0.166;2023-07-30T10:14:26;17.10;;;3.15;;
15629;SDS011;7914;50.842;0.166;2023-07-30T10:16:55;15.43;;;3.50;;
15629;SDS011;7914;50.842;0.166;2023-07-30T10:19:26;14.63;;;3.38;;
15629;SDS011;7914;50.842;0.166;2023-07-30T10:22:38;13.57;;;3.10;;
15629;SDS011;7914;50.842;0.166;2023-07-30T10:24:40;12.10;;;2.45;;
15629;SDS011;7914;50.842;0.166;2023-07-30T10:27:06;14.90;;;2.90;;
15629;SDS011;7914;50.842;0.166;2023-07-30T10:29:35;14.15;;;3.10;;
15629;SDS011;7914;50.842;0.166;2023-07-30T10:32:01;11.48;;;2.60;;
15629;SDS011;7914;50.842;0.166;2023-07-30T10:34:44;10.98;;;3.40;;
15629;SDS011;7914;50.842;0.166;2023-07-30T10:37:10;10.27;;;2.40;;
15629;SDS011;7914;50.842;0.166;2023-07-30T10:39:42;9.48;;;2.72;;
15629;SDS011;7914;50.842;0.166;2023-07-30T10:42:07;9.80;;;3.13;;
15629;SDS011;7914;50.842;0.166;2023-07-30T10:44:34;13.85;;;2.63;;
15629;SDS011;7914;50.842;0.166;2023-07-30T10:47:00;14.45;;;2.70;;
15629;SDS011;7914;50.842;0.166;2023-07-30T10:49:40;15.63;;;2.83;;
